To NAV CANADA Home Page Login to a new session Search on AWWS site Feedback and Comments Disclaimer Vers la page française équivalente Tips FAQ What's new on the site To the Forecasts and Observations / NOTAM section To "File a Flight Plan" website Publications and other links Update of the User's profile FIC Telephone Numbers My Weather Data Folder Route Weather Data Regional Weather Data Local Weather Data To the Forecasts and Observations / NOTAM section
Request Generated 04/26/2015 at 01:24:44 UTC . Weather information available at that time is displayed.

METAR/TAF

RANKIN INLET/NU    

METAR CYRT 260100Z 34002KT 10SM OVC009 M03/M04 A3030 RMK ST8 SLP262=
METAR CYRT 260000Z 01004KT 10SM BKN009 M03/M04 A3030 RMK ST7 SLP262=
METAR CYRT 252300Z 35006KT 12SM BKN009 M03/M05 A3030 RMK ST7 SLP263=

TAF CYRT 252338Z 2600/2612 34006KT P6SM SCT008 TEMPO 2600/2602 BKN008
FM260200 30006KT P6SM SCT010 SCT060
RMK NXT FCST BY 260600Z=
Your time UTC time
Weather data provided by Environment Canada and NAV CANADA